Time;durP1;ratioP1;P1;durP2;ratioP2;P2;SDS_P1;SDS_P2;PMS_P1;PMS_P2;Temp;Humidity;BMP_temperature;BMP_pressure;BME280_temperature;BME280_humidity;BME280_pressure;Samples;Min_cycle;Max_cycle;Signal;HPM_P1;HPM_P2
2021/03/12 00:00:19;;;;;;;6.43;2.35;;;;;;;;;;5053360;28;20180;-75
2021/03/12 00:02:45;;;;;;;8.73;3.20;;;;;;;;;;5051464;28;20223;-77
2021/03/12 00:05:12;;;;;;;5.38;2.58;;;;;;;;;;5051441;28;20204;-77
2021/03/12 00:07:38;;;;;;;4.00;2.20;;;;;;;;;;5051206;28;20195;-76
2021/03/12 00:10:07;;;;;;;4.45;2.22;;;;;;;;;;5051388;28;20227;-78
2021/03/12 00:12:33;;;;;;;4.00;1.88;;;;;;;;;;5050819;28;20181;-75
2021/03/12 00:14:59;;;;;;;3.75;2.10;;;;;;;;;;5047936;28;20208;-73
2021/03/12 00:17:25;;;;;;;3.08;1.63;;;;;;;;;;5051210;28;20649;-75
2021/03/12 00:19:51;;;;;;;3.28;2.20;;;;;;;;;;5050642;28;20311;-76
2021/03/12 00:22:17;;;;;;;7.97;2.30;;;;;;;;;;5050354;28;20258;-76
2021/03/12 00:24:43;;;;;;;3.03;1.80;;;;;;;;;;5042592;28;20254;-75
2021/03/12 00:27:09;;;;;;;5.13;1.60;;;;;;;;;;5051266;28;20715;-75
2021/03/12 00:29:35;;;;;;;3.78;1.98;;;;;;;;;;5049670;28;20224;-77
2021/03/12 00:32:01;;;;;;;4.28;1.65;;;;;;;;;;5064285;28;20252;-77
2021/03/12 00:34:27;;;;;;;5.75;2.10;;;;;;;;;;5060504;28;20220;-75
2021/03/12 00:36:53;;;;;;;11.13;2.33;;;;;;;;;;5050806;28;20622;-75
2021/03/12 00:39:19;;;;;;;2.90;1.60;;;;;;;;;;5043244;28;20228;-77
2021/03/12 00:41:45;;;;;;;3.38;1.48;;;;;;;;;;5064092;28;20657;-76
2021/03/12 00:44:11;;;;;;;2.45;1.55;;;;;;;;;;5057699;28;20296;-76
2021/03/12 00:46:37;;;;;;;5.40;1.83;;;;;;;;;;5042339;28;20184;-75
2021/03/12 00:49:03;;;;;;;4.65;1.60;;;;;;;;;;5061224;28;20182;-75
2021/03/12 00:51:30;;;;;;;4.20;1.60;;;;;;;;;;5061750;28;20183;-75
2021/03/12 00:53:56;;;;;;;2.90;1.80;;;;;;;;;;5042518;28;20605;-77
2021/03/12 00:56:22;;;;;;;3.60;2.13;;;;;;;;;;5050617;28;20188;-76
2021/03/12 00:58:48;;;;;;;4.88;1.90;;;;;;;;;;5037757;28;20186;-75
2021/03/12 01:01:14;;;;;;;3.17;1.60;;;;;;;;;;5033274;28;20209;-76
2021/03/12 01:03:40;;;;;;;2.83;1.60;;;;;;;;;;5045292;28;20205;-75
2021/03/12 01:06:07;;;;;;;4.13;1.95;;;;;;;;;;5047110;28;20189;-76
2021/03/12 01:08:33;;;;;;;4.03;1.60;;;;;;;;;;5042078;28;20234;-75
2021/03/12 01:10:59;;;;;;;5.00;1.73;;;;;;;;;;5054127;28;20188;-75
2021/03/12 01:13:25;;;;;;;6.53;2.75;;;;;;;;;;5053411;28;20201;-73
2021/03/12 01:15:51;;;;;;;6.30;2.60;;;;;;;;;;5054123;28;20966;-75
2021/03/12 01:18:17;;;;;;;5.50;2.40;;;;;;;;;;5053948;28;20177;-77
2021/03/12 01:20:43;;;;;;;5.30;2.20;;;;;;;;;;5053624;28;20196;-77
2021/03/12 01:23:10;;;;;;;4.53;2.30;;;;;;;;;;5052616;28;20193;-76
2021/03/12 01:25:39;;;;;;;3.05;2.33;;;;;;;;;;5052745;28;20251;-76
2021/03/12 01:28:06;;;;;;;3.75;1.75;;;;;;;;;;5044058;28;20181;-76
2021/03/12 01:30:36;;;;;;;5.45;2.10;;;;;;;;;;5053700;28;20169;-77
2021/03/12 01:33:03;;;;;;;4.70;1.90;;;;;;;;;;5053076;28;20169;-77
2021/03/12 01:35:29;;;;;;;5.75;2.28;;;;;;;;;;5054256;28;20591;-76
2021/03/12 01:37:55;;;;;;;3.53;1.88;;;;;;;;;;5055188;28;20215;-75
2021/03/12 01:40:22;;;;;;;6.75;2.20;;;;;;;;;;5054148;28;20184;-75
2021/03/12 01:42:48;;;;;;;7.28;2.20;;;;;;;;;;5053465;28;20192;-76
2021/03/12 01:45:16;;;;;;;7.00;2.20;;;;;;;;;;5054067;28;20581;-76
2021/03/12 01:47:43;;;;;;;3.17;2.00;;;;;;;;;;5053704;28;20315;-76
2021/03/12 01:50:09;;;;;;;3.15;2.05;;;;;;;;;;5053566;28;20184;-76
2021/03/12 01:52:36;;;;;;;3.50;1.90;;;;;;;;;;5053829;28;20285;-76
2021/03/12 01:55:02;;;;;;;3.83;2.17;;;;;;;;;;5053220;28;20209;-76
2021/03/12 01:57:28;;;;;;;5.78;2.25;;;;;;;;;;5053468;28;20203;-76
2021/03/12 01:59:54;;;;;;;9.00;2.78;;;;;;;;;;5053186;28;20208;-75
2021/03/12 02:02:20;;;;;;;7.93;2.25;;;;;;;;;;5053702;28;20208;-76
2021/03/12 02:04:46;;;;;;;7.30;2.00;;;;;;;;;;5051395;28;20755;-76
2021/03/12 02:07:12;;;;;;;5.50;3.20;;;;;;;;;;5053592;28;20553;-76
2021/03/12 02:09:38;;;;;;;5.73;2.57;;;;;;;;;;5048353;28;20186;-76
2021/03/12 02:12:04;;;;;;;7.35;2.40;;;;;;;;;;5058830;28;20405;-76
2021/03/12 02:14:37;;;;;;;5.97;2.20;;;;;;;;;;5064353;28;20212;-77
2021/03/12 02:17:06;;;;;;;5.93;2.00;;;;;;;;;;5053241;28;20200;-76
2021/03/12 02:19:41;;;;;;;4.60;2.00;;;;;;;;;;5052604;28;20185;-76
2021/03/12 02:22:08;;;;;;;8.30;2.85;;;;;;;;;;5052748;28;20180;-76
2021/03/12 02:24:46;;;;;;;5.03;2.22;;;;;;;;;;5051735;28;20598;-76
2021/03/12 02:27:13;;;;;;;4.57;2.40;;;;;;;;;;5070927;28;20176;-76
2021/03/12 02:29:50;;;;;;;9.10;2.50;;;;;;;;;;5056706;28;20560;-76
2021/03/12 02:32:17;;;;;;;6.88;2.30;;;;;;;;;;5053491;28;20362;-76
2021/03/12 02:34:44;;;;;;;4.03;2.40;;;;;;;;;;5052186;28;20204;-76
2021/03/12 02:37:12;;;;;;;6.22;2.50;;;;;;;;;;5057345;28;20241;-76
2021/03/12 02:39:42;;;;;;;6.45;1.98;;;;;;;;;;5053748;28;20646;-77
2021/03/12 02:42:08;;;;;;;6.40;2.63;;;;;;;;;;5058377;28;20188;-76
2021/03/12 02:44:35;;;;;;;6.88;3.10;;;;;;;;;;5045832;28;20202;-76
2021/03/12 02:47:07;;;;;;;4.95;2.78;;;;;;;;;;5059198;28;20749;-75
2021/03/12 02:49:35;;;;;;;7.70;2.67;;;;;;;;;;5056476;28;20264;-76
2021/03/12 02:52:01;;;;;;;8.32;3.22;;;;;;;;;;5046782;28;20564;-76
2021/03/12 02:54:27;;;;;;;7.28;3.00;;;;;;;;;;5047242;28;20217;-75
2021/03/12 02:56:53;;;;;;;8.20;3.05;;;;;;;;;;5066072;28;20234;-76
2021/03/12 02:59:20;;;;;;;10.32;3.17;;;;;;;;;;5058702;28;20206;-76
2021/03/12 03:01:51;;;;;;;6.57;3.13;;;;;;;;;;5061651;28;20204;-76
2021/03/12 03:04:17;;;;;;;9.27;3.92;;;;;;;;;;5055940;28;20627;-74
2021/03/12 03:06:44;;;;;;;8.25;3.25;;;;;;;;;;5052080;28;20635;-75
2021/03/12 03:09:10;;;;;;;9.90;3.83;;;;;;;;;;5055267;28;20178;-76
2021/03/12 03:11:37;;;;;;;9.30;3.33;;;;;;;;;;5054441;28;20208;-74
2021/03/12 03:14:05;;;;;;;9.45;3.90;;;;;;;;;;5063056;28;20311;-76
2021/03/12 03:16:35;;;;;;;8.93;3.25;;;;;;;;;;5055353;28;20549;-76
2021/03/12 03:19:01;;;;;;;8.90;4.25;;;;;;;;;;5071044;28;20212;-76
2021/03/12 03:21:28;;;;;;;6.53;3.72;;;;;;;;;;5065453;28;20248;-76
2021/03/12 03:23:54;;;;;;;11.93;4.65;;;;;;;;;;5041050;28;20205;-75
2021/03/12 03:26:20;;;;;;;12.85;5.30;;;;;;;;;;5056053;28;20585;-76
2021/03/12 03:28:46;;;;;;;7.05;4.28;;;;;;;;;;5055488;28;20207;-76
2021/03/12 03:31:12;;;;;;;8.10;4.13;;;;;;;;;;5056101;28;20180;-76
2021/03/12 03:33:38;;;;;;;11.45;4.47;;;;;;;;;;5055655;28;20682;-76
2021/03/12 03:36:05;;;;;;;12.32;5.00;;;;;;;;;;5056002;28;20712;-77
2021/03/12 03:38:31;;;;;;;12.82;4.70;;;;;;;;;;5051278;28;20188;-76
2021/03/12 03:40:57;;;;;;;12.68;4.55;;;;;;;;;;5055960;28;20226;-76
2021/03/12 03:43:27;;;;;;;12.30;4.75;;;;;;;;;;5055628;28;20205;-77
2021/03/12 03:45:56;;;;;;;6.85;3.78;;;;;;;;;;5056192;28;20181;-75
2021/03/12 03:48:23;;;;;;;12.25;4.68;;;;;;;;;;5054355;28;20180;-76
2021/03/12 03:50:51;;;;;;;10.93;4.20;;;;;;;;;;5055351;28;20216;-76
2021/03/12 03:53:17;;;;;;;9.90;4.03;;;;;;;;;;5054471;28;20208;-74
2021/03/12 03:55:43;;;;;;;8.95;3.55;;;;;;;;;;5057564;28;20181;-75
2021/03/12 03:58:10;;;;;;;13.35;4.30;;;;;;;;;;5068613;28;20181;-75
2021/03/12 04:00:36;;;;;;;9.35;3.78;;;;;;;;;;5052007;28;20633;-74
2021/03/12 04:03:03;;;;;;;10.27;3.80;;;;;;;;;;5054812;28;20538;-75
2021/03/12 04:05:30;;;;;;;7.72;3.65;;;;;;;;;;5055331;28;20188;-75
2021/03/12 04:07:56;;;;;;;11.40;3.75;;;;;;;;;;5054880;28;20177;-75
2021/03/12 04:10:23;;;;;;;11.50;3.90;;;;;;;;;;5053638;28;20295;-75
2021/03/12 04:12:49;;;;;;;10.15;3.88;;;;;;;;;;5054719;28;20183;-74
2021/03/12 04:15:16;;;;;;;11.30;3.95;;;;;;;;;;5065253;28;20207;-76
2021/03/12 04:17:42;;;;;;;9.35;3.72;;;;;;;;;;5056756;28;20188;-75
2021/03/12 04:20:09;;;;;;;9.15;4.20;;;;;;;;;;5054636;28;20169;-76
2021/03/12 04:22:36;;;;;;;8.18;3.70;;;;;;;;;;5052008;28;20177;-76
2021/03/12 04:25:04;;;;;;;8.50;3.95;;;;;;;;;;5048604;28;20508;-75
2021/03/12 04:27:30;;;;;;;9.52;3.55;;;;;;;;;;5054320;28;20642;-75
2021/03/12 04:29:57;;;;;;;10.80;3.92;;;;;;;;;;5053812;28;20174;-76
2021/03/12 04:32:23;;;;;;;10.75;3.65;;;;;;;;;;5060667;28;20260;-76
2021/03/12 04:34:49;;;;;;;8.77;3.13;;;;;;;;;;5054571;28;20205;-76
2021/03/12 04:37:15;;;;;;;7.72;3.60;;;;;;;;;;5054656;28;20188;-76
2021/03/12 04:39:42;;;;;;;12.10;3.42;;;;;;;;;;5045487;28;20527;-76
2021/03/12 04:42:08;;;;;;;8.07;3.60;;;;;;;;;;5048127;28;20178;-77
2021/03/12 04:44:38;;;;;;;9.57;3.97;;;;;;;;;;5051771;28;20295;-76
2021/03/12 04:47:05;;;;;;;8.80;3.38;;;;;;;;;;5055243;28;20190;-76
2021/03/12 04:49:31;;;;;;;10.98;4.05;;;;;;;;;;5053920;28;20655;-76
2021/03/12 04:51:57;;;;;;;10.73;4.43;;;;;;;;;;5054829;28;20185;-77
2021/03/12 04:54:23;;;;;;;12.80;4.15;;;;;;;;;;5053646;28;20288;-77
2021/03/12 04:56:50;;;;;;;13.65;3.72;;;;;;;;;;5050234;28;20183;-77
2021/03/12 04:59:17;;;;;;;11.43;3.67;;;;;;;;;;5053657;28;20240;-76
2021/03/12 05:01:43;;;;;;;12.93;3.67;;;;;;;;;;5040661;28;20231;-77
2021/03/12 05:04:09;;;;;;;8.50;3.30;;;;;;;;;;5053087;28;20211;-75
2021/03/12 05:06:37;;;;;;;10.63;3.40;;;;;;;;;;5054481;28;20581;-77
2021/03/12 05:09:04;;;;;;;6.70;3.40;;;;;;;;;;5054134;28;20192;-77
2021/03/12 05:11:30;;;;;;;10.30;3.90;;;;;;;;;;5048850;28;20573;-77
2021/03/12 05:13:56;;;;;;;6.82;4.50;;;;;;;;;;5049374;28;20221;-76
2021/03/12 05:16:22;;;;;;;8.00;3.30;;;;;;;;;;5054277;28;20181;-76
2021/03/12 05:18:48;;;;;;;9.18;3.10;;;;;;;;;;5053284;28;20574;-76
2021/03/12 05:21:14;;;;;;;6.82;3.85;;;;;;;;;;5054421;28;20219;-76
2021/03/12 05:23:40;;;;;;;9.07;2.92;;;;;;;;;;5044654;28;20649;-76
2021/03/12 05:26:07;;;;;;;11.32;3.50;;;;;;;;;;5070015;28;20204;-76
2021/03/12 05:28:33;;;;;;;11.57;3.85;;;;;;;;;;5058899;28;20169;-76
2021/03/12 05:30:59;;;;;;;8.20;3.25;;;;;;;;;;5052874;28;20279;-74
2021/03/12 05:33:25;;;;;;;11.60;3.58;;;;;;;;;;5063196;28;20282;-77
2021/03/12 05:35:51;;;;;;;11.48;3.28;;;;;;;;;;5062425;28;20542;-77
2021/03/12 05:38:17;;;;;;;9.63;3.50;;;;;;;;;;5054011;28;20258;-77
2021/03/12 05:40:43;;;;;;;9.90;3.65;;;;;;;;;;5053121;28;20177;-77
2021/03/12 05:43:10;;;;;;;10.88;3.30;;;;;;;;;;5047645;28;20301;-77
2021/03/12 05:45:37;;;;;;;9.02;3.03;;;;;;;;;;5059188;28;20174;-77
2021/03/12 05:48:03;;;;;;;6.75;3.08;;;;;;;;;;5064378;28;20251;-77
2021/03/12 05:50:29;;;;;;;11.02;3.75;;;;;;;;;;5059565;28;20500;-76
2021/03/12 05:52:55;;;;;;;11.38;3.45;;;;;;;;;;5052427;28;20173;-77
2021/03/12 05:55:21;;;;;;;12.27;3.42;;;;;;;;;;5048985;28;20284;-76
2021/03/12 05:57:48;;;;;;;8.20;3.72;;;;;;;;;;5053136;28;20216;-77
2021/03/12 06:00:14;;;;;;;12.57;4.85;;;;;;;;;;5053959;28;20207;-76
2021/03/12 06:02:40;;;;;;;9.93;3.10;;;;;;;;;;5053865;28;20177;-77
2021/03/12 06:05:07;;;;;;;10.30;3.95;;;;;;;;;;5051038;28;20223;-77
2021/03/12 06:07:33;;;;;;;8.73;4.68;;;;;;;;;;5055375;28;20181;-77
2021/03/12 06:09:59;;;;;;;9.18;3.42;;;;;;;;;;5055826;28;20180;-77
2021/03/12 06:12:25;;;;;;;10.00;4.95;;;;;;;;;;5072817;28;20183;-77
2021/03/12 06:14:53;;;;;;;11.00;3.30;;;;;;;;;;5055259;28;20240;-78
2021/03/12 06:17:30;;;;;;;7.38;3.13;;;;;;;;;;5053228;28;20179;-77
2021/03/12 06:19:56;;;;;;;10.43;3.85;;;;;;;;;;5058651;28;20176;-77
2021/03/12 06:22:23;;;;;;;9.65;3.50;;;;;;;;;;5051766;28;20627;-76
2021/03/12 06:24:49;;;;;;;7.43;3.45;;;;;;;;;;5051438;28;20203;-76
2021/03/12 06:27:28;;;;;;;7.10;3.05;;;;;;;;;;5054914;28;20176;-77
2021/03/12 06:29:57;;;;;;;9.02;3.72;;;;;;;;;;5060317;28;20649;-76
2021/03/12 06:32:36;;;;;;;12.13;3.97;;;;;;;;;;5052834;28;20177;-77
2021/03/12 06:35:02;;;;;;;8.35;3.60;;;;;;;;;;5050938;28;20200;-77
2021/03/12 06:37:30;;;;;;;12.40;3.58;;;;;;;;;;5072869;28;20184;-77
2021/03/12 06:39:56;;;;;;;12.43;3.45;;;;;;;;;;5059391;28;20170;-78
2021/03/12 06:42:22;;;;;;;10.90;3.40;;;;;;;;;;5056406;28;20209;-76
2021/03/12 06:44:48;;;;;;;6.85;3.15;;;;;;;;;;5061016;28;20243;-78
2021/03/12 06:47:19;;;;;;;7.85;3.40;;;;;;;;;;5039775;28;20181;-77
2021/03/12 06:49:55;;;;;;;7.93;3.80;;;;;;;;;;5058380;28;20535;-77
2021/03/12 06:52:31;;;;;;;8.35;3.88;;;;;;;;;;5051878;28;20177;-76
2021/03/12 06:54:57;;;;;;;8.38;3.60;;;;;;;;;;5055190;28;20206;-76
2021/03/12 06:57:26;;;;;;;7.63;3.90;;;;;;;;;;5055585;28;20173;-76
2021/03/12 06:59:59;;;;;;;7.10;3.00;;;;;;;;;;5052464;28;20181;-78
2021/03/12 07:02:32;;;;;;;8.10;3.72;;;;;;;;;;5052688;28;20623;-76
2021/03/12 07:04:58;;;;;;;7.53;3.10;;;;;;;;;;5051396;28;20212;-76
2021/03/12 07:07:45;;;;;;;9.15;3.08;;;;;;;;;;5055917;28;20178;-77
2021/03/12 07:10:11;;;;;;;10.55;3.28;;;;;;;;;;5064739;28;20260;-75
2021/03/12 07:12:48;;;;;;;7.78;2.90;;;;;;;;;;5059189;28;20196;-76
2021/03/12 07:15:14;;;;;;;5.65;2.42;;;;;;;;;;5056650;28;20223;-78
2021/03/12 07:17:41;;;;;;;9.57;3.13;;;;;;;;;;5044011;28;20177;-76
2021/03/12 07:20:08;;;;;;;6.70;3.58;;;;;;;;;;5051965;28;20510;-76
2021/03/12 07:22:35;;;;;;;9.85;3.40;;;;;;;;;;5053538;28;20188;-76
2021/03/12 07:25:04;;;;;;;6.38;3.10;;;;;;;;;;5053823;28;20282;-77
2021/03/12 07:27:32;;;;;;;6.18;2.90;;;;;;;;;;5054324;28;20625;-77
2021/03/12 07:30:00;;;;;;;6.68;2.90;;;;;;;;;;5055895;28;20740;-77
2021/03/12 07:32:27;;;;;;;7.75;2.85;;;;;;;;;;5055795;28;20188;-77
2021/03/12 07:34:53;;;;;;;8.15;3.53;;;;;;;;;;5055617;28;20201;-77
2021/03/12 07:37:19;;;;;;;9.68;3.58;;;;;;;;;;5062232;28;20180;-76
2021/03/12 07:39:46;;;;;;;5.43;2.60;;;;;;;;;;5075433;28;20238;-78
2021/03/12 07:42:16;;;;;;;6.20;2.42;;;;;;;;;;5053718;28;20891;-77
2021/03/12 07:44:46;;;;;;;5.35;2.15;;;;;;;;;;5054147;28;20189;-77
2021/03/12 07:47:13;;;;;;;6.80;3.17;;;;;;;;;;5049858;28;20180;-76
2021/03/12 07:49:39;;;;;;;6.50;3.35;;;;;;;;;;5043912;28;20209;-78
2021/03/12 07:52:05;;;;;;;8.05;2.90;;;;;;;;;;5072115;28;20206;-77
2021/03/12 07:54:41;;;;;;;6.65;3.38;;;;;;;;;;5061945;28;20212;-79
2021/03/12 07:57:07;;;;;;;8.85;2.40;;;;;;;;;;5053721;28;20250;-77
2021/03/12 07:59:49;;;;;;;7.30;2.83;;;;;;;;;;5061656;28;20191;-77
2021/03/12 08:02:22;;;;;;;6.65;2.50;;;;;;;;;;5044337;28;20616;-77
2021/03/12 08:04:48;;;;;;;6.50;3.08;;;;;;;;;;5057288;28;20223;-77
2021/03/12 08:07:18;;;;;;;5.57;2.92;;;;;;;;;;5057984;28;20579;-77
2021/03/12 08:09:45;;;;;;;8.30;2.90;;;;;;;;;;5052219;28;20188;-78
2021/03/12 08:12:31;;;;;;;9.25;2.67;;;;;;;;;;5051918;28;20181;-77
2021/03/12 08:15:10;;;;;;;8.80;3.08;;;;;;;;;;5059226;28;20216;-78
2021/03/12 08:17:36;;;;;;;5.40;2.40;;;;;;;;;;5051266;28;20634;-77
2021/03/12 08:20:22;;;;;;;9.00;2.67;;;;;;;;;;5051579;28;20199;-76
2021/03/12 08:22:48;;;;;;;5.25;2.55;;;;;;;;;;5033356;28;20213;-77
2021/03/12 08:25:37;;;;;;;7.93;2.60;;;;;;;;;;5036745;28;20225;-76
2021/03/12 08:28:23;;;;;;;8.48;2.85;;;;;;;;;;5054570;28;20184;-76
2021/03/12 08:30:51;;;;;;;5.55;2.88;;;;;;;;;;5038107;28;20644;-77
2021/03/12 08:33:23;;;;;;;6.90;3.08;;;;;;;;;;5063104;28;20342;-76
2021/03/12 08:35:49;;;;;;;9.68;4.10;;;;;;;;;;5045537;28;20188;-76
2021/03/12 08:38:25;;;;;;;8.50;2.72;;;;;;;;;;5060561;28;20660;-77
2021/03/12 08:41:01;;;;;;;6.43;2.67;;;;;;;;;;5047178;28;20177;-76
2021/03/12 08:43:28;;;;;;;6.47;2.70;;;;;;;;;;5052919;28;20196;-78
2021/03/12 08:46:00;;;;;;;6.53;2.75;;;;;;;;;;5052360;28;20208;-77
2021/03/12 08:48:26;;;;;;;5.47;2.40;;;;;;;;;;5050647;28;20263;-77
2021/03/12 08:51:03;;;;;;;4.05;2.40;;;;;;;;;;5042695;28;20221;-77
2021/03/12 08:53:30;;;;;;;5.72;2.60;;;;;;;;;;5057153;28;20207;-77
2021/03/12 08:55:57;;;;;;;5.30;3.17;;;;;;;;;;5048294;28;20183;-76
2021/03/12 08:58:27;;;;;;;7.95;2.80;;;;;;;;;;5057960;28;20173;-76
2021/03/12 09:00:54;;;;;;;10.60;3.20;;;;;;;;;;5053484;28;20484;-76
2021/03/12 09:03:29;;;;;;;5.85;2.97;;;;;;;;;;5058225;28;20192;-77
2021/03/12 09:06:01;;;;;;;8.70;2.70;;;;;;;;;;5043237;28;20185;-76
2021/03/12 09:08:28;;;;;;;7.28;2.65;;;;;;;;;;5050466;28;20207;-77
2021/03/12 09:10:54;;;;;;;7.07;2.55;;;;;;;;;;5049333;28;20212;-78
2021/03/12 09:13:28;;;;;;;8.95;3.28;;;;;;;;;;5049784;28;20229;-76
2021/03/12 09:15:54;;;;;;;6.13;2.70;;;;;;;;;;5044599;28;20209;-75
2021/03/12 09:18:21;;;;;;;6.28;3.00;;;;;;;;;;5049829;28;20254;-76
2021/03/12 09:20:52;;;;;;;7.07;3.15;;;;;;;;;;5050036;28;20184;-75
2021/03/12 09:23:18;;;;;;;4.00;2.65;;;;;;;;;;5048266;28;20239;-77
2021/03/12 09:25:44;;;;;;;10.45;3.20;;;;;;;;;;5050097;28;20191;-76
2021/03/12 09:28:11;;;;;;;8.10;2.78;;;;;;;;;;5049255;28;20181;-77
2021/03/12 09:30:42;;;;;;;9.65;2.85;;;;;;;;;;5039796;28;20181;-76
2021/03/12 09:33:09;;;;;;;6.85;2.70;;;;;;;;;;5066806;28;20538;-77
2021/03/12 09:35:41;;;;;;;9.63;2.85;;;;;;;;;;5049840;28;20220;-77
2021/03/12 09:38:08;;;;;;;8.95;2.92;;;;;;;;;;5056046;28;20191;-77
2021/03/12 09:40:42;;;;;;;7.95;2.83;;;;;;;;;;5068074;28;20705;-76
2021/03/12 09:43:09;;;;;;;9.23;3.10;;;;;;;;;;5059110;28;20232;-75
2021/03/12 09:45:36;;;;;;;5.40;2.55;;;;;;;;;;5049155;28;20212;-76
2021/03/12 09:48:04;;;;;;;11.32;3.05;;;;;;;;;;5041931;28;20191;-75
2021/03/12 09:50:33;;;;;;;6.55;2.60;;;;;;;;;;5047919;28;20186;-76
2021/03/12 09:52:59;;;;;;;3.95;2.90;;;;;;;;;;5063380;28;20178;-76
2021/03/12 09:55:25;;;;;;;6.65;2.67;;;;;;;;;;5039741;28;20241;-77
2021/03/12 09:57:52;;;;;;;6.47;2.80;;;;;;;;;;5064892;28;20655;-76
2021/03/12 10:00:22;;;;;;;5.72;2.60;;;;;;;;;;5061124;28;20192;-75
2021/03/12 10:02:55;;;;;;;8.93;3.20;;;;;;;;;;5066525;28;20176;-76
2021/03/12 10:05:22;;;;;;;6.32;3.22;;;;;;;;;;5046290;28;20332;-77
2021/03/12 10:07:49;;;;;;;5.47;3.35;;;;;;;;;;5048789;28;20929;-78
2021/03/12 10:10:19;;;;;;;6.13;3.75;;;;;;;;;;5051698;28;20180;-77
2021/03/12 10:12:46;;;;;;;6.70;3.25;;;;;;;;;;5066069;28;20537;-78
2021/03/12 10:15:20;;;;;;;6.10;3.63;;;;;;;;;;5052330;28;20223;-76
2021/03/12 10:17:46;;;;;;;4.95;3.25;;;;;;;;;;5051403;28;20188;-78
2021/03/12 10:20:12;;;;;;;12.30;4.50;;;;;;;;;;5047215;28;20601;-77
2021/03/12 10:22:41;;;;;;;7.40;3.80;;;;;;;;;;5047658;28;20216;-77
2021/03/12 10:25:13;;;;;;;10.77;3.70;;;;;;;;;;5038235;28;20527;-76
2021/03/12 10:27:59;;;;;;;10.80;3.67;;;;;;;;;;5035774;28;20212;-77
2021/03/12 10:30:46;;;;;;;11.82;3.95;;;;;;;;;;5048374;28;20186;-78
2021/03/12 10:33:13;;;;;;;7.13;3.53;;;;;;;;;;5048977;28;20197;-78
2021/03/12 10:35:44;;;;;;;7.90;4.05;;;;;;;;;;5047856;28;20236;-78
2021/03/12 10:38:20;;;;;;;8.88;4.47;;;;;;;;;;5032770;28;20189;-78
2021/03/12 10:40:48;;;;;;;12.27;4.90;;;;;;;;;;5045002;28;20196;-76
2021/03/12 10:43:15;;;;;;;6.43;4.00;;;;;;;;;;5052117;28;20197;-75
2021/03/12 10:45:49;;;;;;;7.75;3.45;;;;;;;;;;5064724;28;20180;-75
2021/03/12 10:48:15;;;;;;;3.50;3.20;;;;;;;;;;5052045;28;20545;-78
2021/03/12 10:50:42;;;;;;;7.30;4.00;;;;;;;;;;5046829;28;20643;-76
2021/03/12 10:53:12;;;;;;;8.63;4.13;;;;;;;;;;5048388;28;20204;-77
2021/03/12 10:55:46;;;;;;;9.30;4.03;;;;;;;;;;5048804;28;20221;-76
2021/03/12 10:58:32;;;;;;;8.30;3.85;;;;;;;;;;5051271;28;20658;-76
2021/03/12 11:01:14;;;;;;;10.75;3.85;;;;;;;;;;5051889;28;20185;-78
2021/03/12 11:03:44;;;;;;;6.93;3.15;;;;;;;;;;5052196;28;20204;-75
2021/03/12 11:06:10;;;;;;;5.25;3.70;;;;;;;;;;5052522;28;20196;-79
2021/03/12 11:08:37;;;;;;;11.60;4.57;;;;;;;;;;5054704;28;20279;-79
2021/03/12 11:11:05;;;;;;;7.55;5.25;;;;;;;;;;5049308;28;20189;-76
2021/03/12 11:13:31;;;;;;;8.80;5.05;;;;;;;;;;5046469;28;20248;-75
2021/03/12 11:15:57;;;;;;;9.30;5.35;;;;;;;;;;5052184;28;20184;-78
2021/03/12 11:18:26;;;;;;;7.75;4.78;;;;;;;;;;5059350;28;20177;-77
2021/03/12 11:20:52;;;;;;;7.55;5.03;;;;;;;;;;5052228;28;20173;-77
2021/03/12 11:23:18;;;;;;;9.80;5.35;;;;;;;;;;5057900;28;20196;-77
2021/03/12 11:25:44;;;;;;;7.80;6.15;;;;;;;;;;5071748;28;20230;-77
2021/03/12 11:28:10;;;;;;;11.35;4.97;;;;;;;;;;5048298;28;20688;-77
2021/03/12 11:30:36;;;;;;;7.15;4.85;;;;;;;;;;5052419;28;20231;-77
2021/03/12 11:33:03;;;;;;;7.15;4.15;;;;;;;;;;5051690;28;20207;-78
2021/03/12 11:35:29;;;;;;;7.75;5.25;;;;;;;;;;5050176;28;20209;-76
2021/03/12 11:37:56;;;;;;;6.00;4.40;;;;;;;;;;5052044;28;20184;-76
2021/03/12 11:40:22;;;;;;;8.57;4.53;;;;;;;;;;5050955;28;20180;-77
2021/03/12 11:42:48;;;;;;;7.78;4.60;;;;;;;;;;5053187;28;20204;-78
2021/03/12 11:45:15;;;;;;;6.93;4.43;;;;;;;;;;5051847;28;20185;-76
2021/03/12 11:47:41;;;;;;;8.82;4.07;;;;;;;;;;5051861;28;20185;-77
2021/03/12 11:50:09;;;;;;;6.10;4.10;;;;;;;;;;5051356;28;20828;-76
2021/03/12 11:52:35;;;;;;;8.10;4.28;;;;;;;;;;5052037;28;20177;-77
2021/03/12 11:55:01;;;;;;;7.57;4.45;;;;;;;;;;5053067;28;20239;-76
2021/03/12 11:57:27;;;;;;;6.25;3.95;;;;;;;;;;5058512;28;20541;-77
2021/03/12 11:59:53;;;;;;;5.22;3.90;;;;;;;;;;5049951;28;20181;-77
2021/03/12 12:02:19;;;;;;;8.93;3.90;;;;;;;;;;5051845;28;20173;-74
2021/03/12 12:04:46;;;;;;;8.05;4.60;;;;;;;;;;5039867;28;20256;-71
2021/03/12 12:07:12;;;;;;;11.80;4.35;;;;;;;;;;5056899;28;20231;-72
2021/03/12 12:09:40;;;;;;;9.80;3.92;;;;;;;;;;5051865;28;20211;-73
2021/03/12 12:12:06;;;;;;;5.45;3.50;;;;;;;;;;5049831;28;20203;-72
2021/03/12 12:14:32;;;;;;;5.78;3.53;;;;;;;;;;5052086;28;20229;-74
2021/03/12 12:16:58;;;;;;;6.18;3.50;;;;;;;;;;5071348;28;20211;-74
2021/03/12 12:19:24;;;;;;;8.05;4.50;;;;;;;;;;5056146;28;20177;-71
2021/03/12 12:21:50;;;;;;;7.63;3.50;;;;;;;;;;5059195;28;20233;-73
2021/03/12 12:24:17;;;;;;;7.55;3.92;;;;;;;;;;5053731;28;20204;-72
2021/03/12 12:26:43;;;;;;;4.47;2.90;;;;;;;;;;5049941;28;20180;-74
2021/03/12 12:29:09;;;;;;;11.52;3.83;;;;;;;;;;5052227;28;20181;-77
2021/03/12 12:31:36;;;;;;;8.40;3.92;;;;;;;;;;5050382;28;20276;-77
2021/03/12 12:34:02;;;;;;;8.50;3.58;;;;;;;;;;5045176;28;20205;-78
2021/03/12 12:36:29;;;;;;;10.02;3.50;;;;;;;;;;5048965;28;20691;-76
2021/03/12 12:38:55;;;;;;;8.00;3.10;;;;;;;;;;5053561;28;20173;-76
2021/03/12 12:41:21;;;;;;;7.80;2.70;;;;;;;;;;5050908;28;20184;-76
2021/03/12 12:43:47;;;;;;;7.80;3.28;;;;;;;;;;5050355;28;20201;-78
2021/03/12 12:46:13;;;;;;;5.70;3.13;;;;;;;;;;5050912;28;20223;-77
2021/03/12 12:48:39;;;;;;;10.50;3.42;;;;;;;;;;5064047;28;20211;-78
2021/03/12 12:51:06;;;;;;;6.95;2.83;;;;;;;;;;5059664;28;20188;-78
2021/03/12 12:53:32;;;;;;;5.03;2.90;;;;;;;;;;5068627;28;20203;-77
2021/03/12 12:55:58;;;;;;;6.00;3.58;;;;;;;;;;5070573;28;20212;-77
2021/03/12 12:58:24;;;;;;;5.38;3.75;;;;;;;;;;5060467;28;20205;-78
2021/03/12 13:00:50;;;;;;;6.72;3.55;;;;;;;;;;5050561;28;20260;-78
2021/03/12 13:03:16;;;;;;;10.80;3.90;;;;;;;;;;5049916;28;20204;-78
2021/03/12 13:05:42;;;;;;;4.85;3.47;;;;;;;;;;5059172;28;20441;-76
2021/03/12 13:08:08;;;;;;;8.13;4.05;;;;;;;;;;5070360;28;20188;-77
2021/03/12 13:10:34;;;;;;;6.43;3.05;;;;;;;;;;5061123;28;20215;-76
2021/03/12 13:13:00;;;;;;;4.88;3.25;;;;;;;;;;5065171;28;20275;-75
2021/03/12 13:15:27;;;;;;;4.47;3.47;;;;;;;;;;5054755;28;20236;-75
2021/03/12 13:17:53;;;;;;;5.53;2.70;;;;;;;;;;5049828;28;20185;-77
2021/03/12 13:20:20;;;;;;;5.30;2.90;;;;;;;;;;5049780;28;20180;-77
2021/03/12 13:22:47;;;;;;;8.98;3.60;;;;;;;;;;5049650;28;20285;-76
2021/03/12 13:25:13;;;;;;;6.35;3.00;;;;;;;;;;5064986;28;20182;-76
2021/03/12 13:27:39;;;;;;;5.30;3.30;;;;;;;;;;5049901;28;20181;-78
2021/03/12 13:30:06;;;;;;;6.13;3.13;;;;;;;;;;5049390;28;20800;-79
2021/03/12 13:32:32;;;;;;;5.95;3.25;;;;;;;;;;5050959;28;20584;-77
2021/03/12 13:34:59;;;;;;;7.47;2.67;;;;;;;;;;5062123;28;20239;-77
2021/03/12 13:37:25;;;;;;;6.75;3.20;;;;;;;;;;5053870;28;20190;-77
2021/03/12 13:39:51;;;;;;;4.47;2.80;;;;;;;;;;5047859;28;20184;-77
2021/03/12 13:42:17;;;;;;;9.75;3.45;;;;;;;;;;5048971;28;20211;-77
2021/03/12 13:44:43;;;;;;;6.95;3.55;;;;;;;;;;5049320;28;20205;-78
2021/03/12 13:47:09;;;;;;;9.30;3.42;;;;;;;;;;5047845;28;20197;-76
2021/03/12 13:49:35;;;;;;;12.63;3.63;;;;;;;;;;5049736;28;20177;-77
2021/03/12 13:52:01;;;;;;;7.70;3.00;;;;;;;;;;5050491;28;20181;-75
2021/03/12 13:54:27;;;;;;;7.10;2.95;;;;;;;;;;5052118;28;20207;-77
2021/03/12 13:56:53;;;;;;;4.20;2.75;;;;;;;;;;5051241;28;20181;-76
2021/03/12 13:59:19;;;;;;;10.35;3.17;;;;;;;;;;5049614;28;20545;-78
2021/03/12 14:01:45;;;;;;;6.50;3.42;;;;;;;;;;5049064;28;20181;-76
2021/03/12 14:04:11;;;;;;;7.38;3.45;;;;;;;;;;5049181;28;20207;-76
2021/03/12 14:06:39;;;;;;;6.20;3.33;;;;;;;;;;5066035;28;20207;-77
2021/03/12 14:09:13;;;;;;;9.43;2.90;;;;;;;;;;5063105;28;20422;-77
2021/03/12 14:11:39;;;;;;;4.50;2.72;;;;;;;;;;5049428;28;20275;-77
2021/03/12 14:14:05;;;;;;;6.30;2.90;;;;;;;;;;5045615;28;20284;-77
2021/03/12 14:16:30;;;;;;;7.65;2.85;;;;;;;;;;5039036;28;20256;-76
2021/03/12 14:18:57;;;;;;;5.53;3.50;;;;;;;;;;5049626;28;20272;-76
2021/03/12 14:21:24;;;;;;;7.95;3.50;;;;;;;;;;5051716;28;20179;-77
2021/03/12 14:23:52;;;;;;;7.25;3.70;;;;;;;;;;5045371;28;20211;-76
2021/03/12 14:26:18;;;;;;;10.15;3.45;;;;;;;;;;5057786;28;20191;-74
2021/03/12 14:28:44;;;;;;;5.28;2.58;;;;;;;;;;5048300;28;20222;-74
2021/03/12 14:31:10;;;;;;;6.90;3.60;;;;;;;;;;5048901;28;20762;-74
2021/03/12 14:33:36;;;;;;;8.65;3.22;;;;;;;;;;5051306;28;20200;-74
2021/03/12 14:36:02;;;;;;;7.18;3.00;;;;;;;;;;5052901;28;20695;-74
2021/03/12 14:38:28;;;;;;;8.27;3.20;;;;;;;;;;5052309;28;20181;-72
2021/03/12 14:40:54;;;;;;;6.35;3.20;;;;;;;;;;5049963;28;20189;-74
2021/03/12 14:43:20;;;;;;;10.60;3.63;;;;;;;;;;5053560;28;20205;-73